createdAt,value
2018-05-19T00:01:05.614Z,12.20
2018-05-19T00:03:33.961Z,12.20
2018-05-19T00:06:03.279Z,12.20
2018-05-19T00:08:32.488Z,12.10
2018-05-19T00:11:02.338Z,12.10
2018-05-19T00:13:32.431Z,12.10
2018-05-19T00:16:00.693Z,11.90
2018-05-19T00:18:28.243Z,11.90
2018-05-19T00:20:56.560Z,11.80
2018-05-19T00:23:24.065Z,11.80
2018-05-19T00:25:51.562Z,11.80
2018-05-19T00:28:19.079Z,11.80
2018-05-19T00:30:47.369Z,11.80
2018-05-19T00:33:14.900Z,11.80
2018-05-19T00:35:43.162Z,11.70
2018-05-19T00:38:11.940Z,11.70
2018-05-19T00:40:40.668Z,11.80
2018-05-19T00:43:08.964Z,11.70
2018-05-19T00:45:37.226Z,11.60
2018-05-19T00:48:05.521Z,11.60
2018-05-19T00:50:33.884Z,11.50
2018-05-19T00:53:02.577Z,11.50
2018-05-19T00:55:31.609Z,11.50
2018-05-19T00:57:59.105Z,11.50
2018-05-19T01:00:27.385Z,11.50
2018-05-19T01:02:55.708Z,11.50
2018-05-19T01:05:23.266Z,11.40
2018-05-19T01:07:51.523Z,11.30
2018-05-19T01:10:19.813Z,11.40
2018-05-19T01:12:47.301Z,11.30
2018-05-19T01:15:15.594Z,11.30
2018-05-19T01:17:43.854Z,11.30
2018-05-19T01:20:13.153Z,11.30
2018-05-19T01:22:42.359Z,11.10
2018-05-19T01:25:10.727Z,11.10
2018-05-19T01:27:38.273Z,11.10
2018-05-19T01:30:06.555Z,11.10
2018-05-19T01:32:34.857Z,11.10
2018-05-19T01:35:03.116Z,11.10
2018-05-19T01:37:30.601Z,11.00
2018-05-19T01:39:58.914Z,11.00
2018-05-19T01:42:27.217Z,11.00
2018-05-19T01:44:56.385Z,11.00
2018-05-19T01:47:23.926Z,10.90
2018-05-19T01:49:52.196Z,10.90
2018-05-19T01:52:19.733Z,10.90
2018-05-19T01:54:47.237Z,10.90
2018-05-19T01:57:14.753Z,10.90
2018-05-19T01:59:43.049Z,10.80
2018-05-19T02:02:11.313Z,10.80
2018-05-19T02:04:39.662Z,10.70
2018-05-19T02:07:07.159Z,10.70
2018-05-19T02:09:35.457Z,10.80
2018-05-19T02:12:04.260Z,10.70
2018-05-19T02:14:32.649Z,10.80
2018-05-19T02:17:02.612Z,10.70
2018-05-19T02:19:31.648Z,10.70
2018-05-19T02:21:59.140Z,10.70
2018-05-19T02:24:28.335Z,10.60
2018-05-19T02:26:55.873Z,10.60
2018-05-19T02:29:24.139Z,10.50
2018-05-19T02:31:52.415Z,10.50
2018-05-19T02:34:19.965Z,10.40
2018-05-19T02:36:48.266Z,10.40
2018-05-19T02:39:16.541Z,10.40
2018-05-19T02:41:44.085Z,10.40
2018-05-19T02:44:12.357Z,10.40
2018-05-19T02:46:39.888Z,10.40
2018-05-19T02:49:08.184Z,10.40
2018-05-19T02:51:36.460Z,10.40
2018-05-19T02:54:04.729Z,10.40
2018-05-19T02:56:33.543Z,10.40
2018-05-19T02:59:02.666Z,10.40
2018-05-19T03:01:31.571Z,10.40
2018-05-19T03:03:59.081Z,10.30
2018-05-19T03:06:26.610Z,10.30
2018-05-19T03:08:54.872Z,10.30
2018-05-19T03:11:23.158Z,10.20
2018-05-19T03:13:51.458Z,10.20
2018-05-19T03:16:19.753Z,10.10
2018-05-19T03:18:47.319Z,10.10
2018-05-19T03:21:15.630Z,10.10
2018-05-19T03:23:43.906Z,10.10
2018-05-19T03:26:12.647Z,10.10
2018-05-19T03:28:40.692Z,10.10
2018-05-19T03:31:08.976Z,10.10
2018-05-19T03:33:37.283Z,10.10
2018-05-19T03:36:05.648Z,10.00
2018-05-19T03:38:33.081Z,10.00
2018-05-19T03:41:02.343Z,10.00
2018-05-19T03:43:29.838Z,10.00
2018-05-19T03:45:57.369Z,10.00
2018-05-19T03:48:25.695Z,10.00
2018-05-19T03:50:53.946Z,10.00
2018-05-19T03:53:21.474Z,9.90
2018-05-19T03:55:48.977Z,9.90
2018-05-19T03:58:28.221Z,10.00
2018-05-19T04:01:08.176Z,10.00
2018-05-19T04:03:35.738Z,9.90
2018-05-19T04:06:03.244Z,10.00
2018-05-19T04:08:31.912Z,10.10
2018-05-19T04:11:00.194Z,10.10
2018-05-19T04:13:28.484Z,10.10
2018-05-19T04:15:56.116Z,10.10
2018-05-19T04:18:23.645Z,10.20
2018-05-19T04:20:51.915Z,10.30
2018-05-19T04:23:20.232Z,10.40
2018-05-19T04:25:48.844Z,10.40
2018-05-19T04:28:16.341Z,10.40
2018-05-19T04:30:44.601Z,10.40
2018-05-19T04:33:12.653Z,10.40
2018-05-19T04:35:40.248Z,10.40
2018-05-19T04:38:07.754Z,10.40
2018-05-19T04:40:36.058Z,10.50
2018-05-19T04:43:04.337Z,10.50
2018-05-19T04:45:32.688Z,10.50
2018-05-19T04:48:01.598Z,10.60
2018-05-19T04:50:29.904Z,10.70
2018-05-19T04:52:58.217Z,10.70
2018-05-19T04:55:25.719Z,10.70
2018-05-19T04:57:53.993Z,10.70
2018-05-19T05:00:22.293Z,10.80
2018-05-19T05:02:50.562Z,10.90
2018-05-19T05:05:18.090Z,10.90
2018-05-19T05:07:46.364Z,11.10
2018-05-19T05:10:14.653Z,11.20
2018-05-19T05:12:42.959Z,11.20
2018-05-19T05:15:11.230Z,11.20
2018-05-19T05:17:38.756Z,11.20
2018-05-19T05:20:07.031Z,11.20
2018-05-19T05:22:34.639Z,11.10
2018-05-19T05:25:02.166Z,11.20
2018-05-19T05:27:29.730Z,11.30
2018-05-19T05:29:58.009Z,11.30
2018-05-19T05:32:26.309Z,11.50
2018-05-19T05:34:53.822Z,11.40
2018-05-19T05:37:22.138Z,11.60
2018-05-19T05:39:50.408Z,11.70
2018-05-19T05:42:17.915Z,11.60
2018-05-19T05:44:46.527Z,11.80
2018-05-19T05:47:14.081Z,11.80
2018-05-19T05:49:42.358Z,11.90
2018-05-19T05:52:11.643Z,12.00
2018-05-19T05:54:39.142Z,12.00
2018-05-19T05:57:07.454Z,12.20
2018-05-19T05:59:35.837Z,12.10
2018-05-19T06:02:03.269Z,12.10
2018-05-19T06:04:32.800Z,12.00
2018-05-19T06:07:01.722Z,12.10
2018-05-19T06:09:30.025Z,12.30
2018-05-19T06:11:58.290Z,12.40
2018-05-19T06:14:26.586Z,12.40
2018-05-19T06:16:57.112Z,12.40
2018-05-19T06:19:25.719Z,12.40
2018-05-19T06:21:53.218Z,12.40
2018-05-19T06:24:20.757Z,12.40
2018-05-19T06:26:49.026Z,12.50
2018-05-19T06:29:17.332Z,12.50
2018-05-19T06:31:45.634Z,12.50
2018-05-19T06:34:13.130Z,12.50
2018-05-19T06:36:41.785Z,12.60
2018-05-19T06:39:10.722Z,12.70
2018-05-19T06:41:39.011Z,12.60
2018-05-19T06:44:06.519Z,12.60
2018-05-19T06:46:34.102Z,12.70
2018-05-19T06:49:03.919Z,12.70
2018-05-19T06:51:33.384Z,12.80
2018-05-19T06:54:01.687Z,12.80
2018-05-19T06:56:29.219Z,12.90
2018-05-19T06:58:56.742Z,12.80
2018-05-19T07:01:25.023Z,12.60
2018-05-19T07:03:53.317Z,12.70
2018-05-19T07:06:20.818Z,12.60
2018-05-19T07:08:49.106Z,12.70
2018-05-19T07:11:17.369Z,12.90
2018-05-19T07:13:44.885Z,12.90
2018-05-19T07:16:13.178Z,13.10
2018-05-19T07:18:42.615Z,13.30
2018-05-19T07:21:11.645Z,13.30
2018-05-19T07:23:39.924Z,13.40
2018-05-19T07:26:08.211Z,13.50
2018-05-19T07:28:36.508Z,13.70
2018-05-19T07:31:04.766Z,13.70
2018-05-19T07:33:33.057Z,13.70
2018-05-19T07:36:02.441Z,13.60
2018-05-19T07:38:29.915Z,13.60
2018-05-19T07:40:58.233Z,13.70
2018-05-19T07:43:26.509Z,13.80
2018-05-19T07:45:54.006Z,13.70
2018-05-19T07:48:22.305Z,13.90
2018-05-19T07:50:50.627Z,14.00
2018-05-19T07:53:18.139Z,14.00
2018-05-19T07:55:45.657Z,14.10
2018-05-19T07:58:13.973Z,14.40
2018-05-19T08:00:42.734Z,14.50
2018-05-19T08:03:10.320Z,14.50
2018-05-19T08:05:37.819Z,14.40
2018-05-19T08:08:06.117Z,14.30
2018-05-19T08:10:34.416Z,14.40
2018-05-19T08:13:02.366Z,14.40
2018-05-19T08:15:33.268Z,14.50
2018-05-19T08:18:02.454Z,14.60
2018-05-19T08:20:31.951Z,14.20
2018-05-19T08:22:59.486Z,14.20
2018-05-19T08:25:27.752Z,14.00
2018-05-19T08:27:56.563Z,14.00
2018-05-19T08:30:24.886Z,14.10
2018-05-19T08:32:52.357Z,14.10
2018-05-19T08:35:20.853Z,14.20
2018-05-19T08:37:49.159Z,14.30
2018-05-19T08:40:17.422Z,14.20
2018-05-19T08:42:44.989Z,14.20
2018-05-19T08:45:13.409Z,14.20
2018-05-19T08:47:41.545Z,14.20
2018-05-19T08:50:09.860Z,14.30
2018-05-19T08:52:37.358Z,14.30
2018-05-19T08:55:04.898Z,14.40
2018-05-19T08:57:33.477Z,14.50
2018-05-19T09:00:02.633Z,14.40
2018-05-19T09:02:30.174Z,14.40
2018-05-19T09:04:57.676Z,14.40
2018-05-19T09:07:25.972Z,14.60
2018-05-19T09:09:54.242Z,14.50
2018-05-19T09:12:21.782Z,14.50
2018-05-19T09:14:50.036Z,14.40
2018-05-19T09:17:18.330Z,14.50
2018-05-19T09:19:46.645Z,14.50
2018-05-19T09:22:14.948Z,14.50
2018-05-19T09:24:43.209Z,14.60
2018-05-19T09:27:12.814Z,14.70
2018-05-19T09:29:42.129Z,14.70
2018-05-19T09:32:09.554Z,14.70
2018-05-19T09:34:38.666Z,14.80
2018-05-19T09:37:06.170Z,14.80
2018-05-19T09:39:34.483Z,15.00
2018-05-19T09:42:03.777Z,15.20
2018-05-19T09:44:32.417Z,15.10
2018-05-19T09:47:00.720Z,15.20
2018-05-19T09:49:29.030Z,15.30
2018-05-19T09:51:56.542Z,15.20
2018-05-19T09:54:24.850Z,15.60
2018-05-19T09:56:53.143Z,15.70
2018-05-19T09:59:21.455Z,15.70
2018-05-19T10:01:49.012Z,15.70
2018-05-19T10:04:17.281Z,15.80
2018-05-19T10:06:44.809Z,15.80
2018-05-19T10:09:13.109Z,16.20
2018-05-19T10:11:41.466Z,16.60
2018-05-19T10:14:08.912Z,16.50
2018-05-19T10:16:36.444Z,16.60
2018-05-19T10:19:03.990Z,16.40
2018-05-19T10:21:33.467Z,16.30
2018-05-19T10:24:01.743Z,16.30
2018-05-19T10:26:30.325Z,16.50
2018-05-19T10:28:57.846Z,16.40
2018-05-19T10:31:28.065Z,16.40
2018-05-19T10:33:55.598Z,16.40
2018-05-19T10:36:24.912Z,16.40
2018-05-19T10:38:52.425Z,16.30
2018-05-19T10:41:23.844Z,16.30
2018-05-19T10:43:51.356Z,16.30
2018-05-19T10:46:19.648Z,16.10
2018-05-19T10:48:47.166Z,16.10
2018-05-19T10:51:15.469Z,16.00
2018-05-19T10:53:42.980Z,16.00
2018-05-19T10:56:10.804Z,16.20
2018-05-19T10:58:39.078Z,16.30
2018-05-19T11:01:07.390Z,16.30
2018-05-19T11:03:35.673Z,16.20
2018-05-19T11:06:03.997Z,16.20
2018-05-19T11:08:33.484Z,16.20
2018-05-19T11:11:02.617Z,16.10
2018-05-19T11:13:31.503Z,16.10
2018-05-19T11:15:59.010Z,16.00
2018-05-19T11:18:27.333Z,15.70
2018-05-19T11:20:55.633Z,16.00
2018-05-19T11:23:23.940Z,16.20
2018-05-19T11:25:52.241Z,16.20
2018-05-19T11:28:20.518Z,16.60
2018-05-19T11:30:48.813Z,16.80
2018-05-19T11:33:16.315Z,16.80
2018-05-19T11:35:43.848Z,16.90
2018-05-19T11:38:11.390Z,17.00
2018-05-19T11:40:39.653Z,17.40
2018-05-19T11:43:07.187Z,17.30
2018-05-19T11:45:35.449Z,17.80
2018-05-19T11:48:03.597Z,17.80
2018-05-19T11:50:32.764Z,18.40
2018-05-19T11:53:01.078Z,18.40
2018-05-19T11:55:29.405Z,18.50
2018-05-19T11:57:56.925Z,18.50
2018-05-19T12:00:25.238Z,18.20
2018-05-19T12:02:53.505Z,18.10
2018-05-19T12:05:21.789Z,18.10
2018-05-19T12:07:50.061Z,18.20
2018-05-19T12:10:18.357Z,18.30
2018-05-19T12:12:46.662Z,18.50
2018-05-19T12:15:14.169Z,18.50
2018-05-19T12:17:42.672Z,18.70
2018-05-19T12:20:12.409Z,19.00
2018-05-19T12:22:41.780Z,19.10
2018-05-19T12:25:10.055Z,19.00
2018-05-19T12:27:37.576Z,19.00
2018-05-19T12:30:05.837Z,19.20
2018-05-19T12:32:34.133Z,19.20
2018-05-19T12:35:02.944Z,19.20
2018-05-19T12:37:30.490Z,19.40
2018-05-19T12:39:58.760Z,19.50
2018-05-19T12:42:27.065Z,19.70
2018-05-19T12:44:54.580Z,19.70
2018-05-19T12:47:22.114Z,19.40
2018-05-19T12:49:50.426Z,18.90
2018-05-19T12:52:17.916Z,18.90
2018-05-19T12:54:45.423Z,18.70
2018-05-19T12:57:12.968Z,18.60
2018-05-19T12:59:41.278Z,18.60
2018-05-19T13:02:08.801Z,18.60
2018-05-19T13:04:37.159Z,18.30
2018-05-19T13:07:05.511Z,18.40
2018-05-19T13:09:33.778Z,18.50
2018-05-19T13:12:03.310Z,18.70
2018-05-19T13:14:32.378Z,18.70
2018-05-19T13:16:59.930Z,18.70
2018-05-19T13:19:28.198Z,18.90
2018-05-19T13:21:57.436Z,18.90
2018-05-19T13:24:25.367Z,19.00
2018-05-19T13:26:52.905Z,19.20
2018-05-19T13:29:21.204Z,19.20
2018-05-19T13:31:49.490Z,19.20
2018-05-19T13:34:17.031Z,19.10
2018-05-19T13:36:44.554Z,19.10
2018-05-19T13:39:12.856Z,19.40
2018-05-19T13:41:40.357Z,19.40
2018-05-19T13:44:07.900Z,19.60
2018-05-19T13:46:36.166Z,19.90
2018-05-19T13:49:04.888Z,20.00
2018-05-19T13:51:33.841Z,20.30
2018-05-19T13:54:03.349Z,20.30
2018-05-19T13:56:31.454Z,20.40
2018-05-19T13:58:58.981Z,20.50
2018-05-19T14:01:27.322Z,20.20
2018-05-19T14:03:54.816Z,20.10
2018-05-19T14:06:22.325Z,20.20
2018-05-19T14:08:51.077Z,20.20
2018-05-19T14:11:19.373Z,20.00
2018-05-19T14:13:46.880Z,20.00
2018-05-19T14:16:14.408Z,20.00
2018-05-19T14:18:42.706Z,20.20
2018-05-19T14:21:11.046Z,20.30
2018-05-19T14:23:39.325Z,20.40
2018-05-19T14:26:08.021Z,20.40
2018-05-19T14:28:36.399Z,20.60
2018-05-19T14:31:04.685Z,20.70
2018-05-19T14:33:33.249Z,20.80
2018-05-19T14:36:02.398Z,20.80
2018-05-19T14:38:29.958Z,20.80
2018-05-19T14:40:58.341Z,20.80
2018-05-19T14:43:25.848Z,20.80
2018-05-19T14:45:54.145Z,21.00
2018-05-19T14:48:21.661Z,21.00
2018-05-19T14:50:51.255Z,20.70
2018-05-19T14:53:19.761Z,20.50
2018-05-19T14:55:47.268Z,20.50
2018-05-19T14:58:14.770Z,20.70
2018-05-19T15:00:43.086Z,20.80
2018-05-19T15:03:11.401Z,20.90
2018-05-19T15:05:39.708Z,20.90
2018-05-19T15:08:07.241Z,20.80
2018-05-19T15:10:35.562Z,20.70
2018-05-19T15:13:03.116Z,20.70
2018-05-19T15:15:32.934Z,20.60
2018-05-19T15:18:02.282Z,20.40
2018-05-19T15:20:30.533Z,20.30
2018-05-19T15:22:58.889Z,20.40
2018-05-19T15:25:27.157Z,20.40
2018-05-19T15:27:55.451Z,20.40
2018-05-19T15:30:24.461Z,20.40
2018-05-19T15:32:52.781Z,20.60
2018-05-19T15:35:21.587Z,20.60
2018-05-19T15:37:49.873Z,20.80
2018-05-19T15:40:18.173Z,20.40
2018-05-19T15:42:46.445Z,20.50
2018-05-19T15:45:14.768Z,20.50
2018-05-19T15:47:43.134Z,20.50
2018-05-19T15:50:11.377Z,20.40
2018-05-19T15:52:38.916Z,20.40
2018-05-19T15:55:06.413Z,20.20
2018-05-19T15:57:34.718Z,20.20
2018-05-19T16:00:03.028Z,20.40
2018-05-19T16:02:31.716Z,20.40
2018-05-19T16:04:59.249Z,20.50
2018-05-19T16:07:26.781Z,20.60
2018-05-19T16:09:55.057Z,20.40
2018-05-19T16:12:23.657Z,20.30
2018-05-19T16:14:51.171Z,20.30
2018-05-19T16:17:19.482Z,20.00
2018-05-19T16:19:47.744Z,20.10
2018-05-19T16:22:15.304Z,20.10
2018-05-19T16:24:43.580Z,20.20
2018-05-19T16:27:11.212Z,20.20
2018-05-19T16:29:39.473Z,20.20
2018-05-19T16:32:07.044Z,20.10
2018-05-19T16:34:34.555Z,20.30
2018-05-19T16:37:03.005Z,20.30
2018-05-19T16:39:32.200Z,20.30
2018-05-19T16:42:00.497Z,20.10
2018-05-19T16:44:28.791Z,19.90
2018-05-19T16:46:56.289Z,19.90
2018-05-19T16:49:24.611Z,19.60
2018-05-19T16:51:52.120Z,19.60
2018-05-19T16:54:21.725Z,19.60
2018-05-19T16:56:50.151Z,19.60
2018-05-19T16:59:18.963Z,19.20
2018-05-19T17:01:46.461Z,19.20
2018-05-19T17:04:14.793Z,19.30
2018-05-19T17:06:42.293Z,19.30
2018-05-19T17:09:10.562Z,19.30
2018-05-19T17:11:38.856Z,19.20
2018-05-19T17:14:07.121Z,19.30
2018-05-19T17:16:34.653Z,19.30
2018-05-19T17:19:03.254Z,19.10
2018-05-19T17:21:32.221Z,19.10
2018-05-19T17:23:59.730Z,19.10
2018-05-19T17:26:28.033Z,19.10
2018-05-19T17:28:55.569Z,19.10
2018-05-19T17:31:23.874Z,18.90
2018-05-19T17:33:51.741Z,18.90
2018-05-19T17:36:20.576Z,19.00
2018-05-19T17:38:48.085Z,19.00
2018-05-19T17:41:16.377Z,18.90
2018-05-19T17:43:44.657Z,18.70
2018-05-19T17:46:12.965Z,18.50
2018-05-19T17:48:40.502Z,18.50
2018-05-19T17:51:08.774Z,18.50
2018-05-19T17:53:37.069Z,18.40
2018-05-19T17:56:05.373Z,18.30
2018-05-19T17:58:33.679Z,18.20
2018-05-19T18:01:01.999Z,18.20
2018-05-19T18:03:30.273Z,18.20
2018-05-19T18:05:57.809Z,18.10
2018-05-19T18:08:25.334Z,18.10
2018-05-19T18:10:53.629Z,18.10
2018-05-19T18:13:22.233Z,18.10
2018-05-19T18:15:50.658Z,18.00
2018-05-19T18:18:19.474Z,17.70
2018-05-19T18:20:47.752Z,17.70
2018-05-19T18:23:15.276Z,17.60
2018-05-19T18:25:43.573Z,17.50
2018-05-19T18:28:11.115Z,17.40
2018-05-19T18:30:39.387Z,17.40
2018-05-19T18:33:07.690Z,17.40
2018-05-19T18:35:35.971Z,17.30
2018-05-19T18:38:04.267Z,17.40
2018-05-19T18:40:33.368Z,17.30
2018-05-19T18:43:02.469Z,17.20
2018-05-19T18:45:31.404Z,17.10
2018-05-19T18:47:58.897Z,17.10
2018-05-19T18:50:27.220Z,16.80
2018-05-19T18:53:00.430Z,16.80
2018-05-19T18:55:28.804Z,16.60
2018-05-19T18:57:57.977Z,16.60
2018-05-19T19:00:26.291Z,16.40
2018-05-19T19:02:53.817Z,16.40
2018-05-19T19:05:22.108Z,16.50
2018-05-19T19:07:50.922Z,16.40
2018-05-19T19:10:20.604Z,16.40
2018-05-19T19:12:49.888Z,16.20
2018-05-19T19:15:18.186Z,16.30
2018-05-19T19:17:46.458Z,16.40
2018-05-19T19:20:14.774Z,16.40
2018-05-19T19:22:42.282Z,16.40
2018-05-19T19:25:09.782Z,16.30
2018-05-19T19:27:37.315Z,16.10
2018-05-19T19:30:05.577Z,16.10
2018-05-19T19:32:33.160Z,16.10
2018-05-19T19:35:01.401Z,16.10
2018-05-19T19:37:29.685Z,16.10
2018-05-19T19:39:57.970Z,16.10
2018-05-19T19:42:26.270Z,16.00
2018-05-19T19:44:54.529Z,16.20
2018-05-19T19:47:22.137Z,16.20
2018-05-19T19:49:51.535Z,16.00
2018-05-19T19:52:19.773Z,16.00
2018-05-19T19:54:48.058Z,15.90
2018-05-19T19:57:16.329Z,15.80
2018-05-19T19:59:44.628Z,15.80
2018-05-19T20:02:12.892Z,15.70
2018-05-19T20:04:44.044Z,15.70
2018-05-19T20:07:11.577Z,15.70
2018-05-19T20:09:39.856Z,15.50
2018-05-19T20:12:07.413Z,15.40
2018-05-19T20:14:35.737Z,15.40
2018-05-19T20:17:03.536Z,15.40
2018-05-19T20:19:31.841Z,15.30
2018-05-19T20:22:03.127Z,15.30
2018-05-19T20:24:32.208Z,15.40
2018-05-19T20:26:59.713Z,15.40
2018-05-19T20:29:27.984Z,15.20
2018-05-19T20:31:56.241Z,15.20
2018-05-19T20:34:24.546Z,15.30
2018-05-19T20:36:52.801Z,15.20
2018-05-19T20:39:21.094Z,15.10
2018-05-19T20:41:50.092Z,15.20
2018-05-19T20:44:19.068Z,15.20
2018-05-19T20:46:46.573Z,15.20
2018-05-19T20:49:14.847Z,15.10
2018-05-19T20:51:42.377Z,15.10
2018-05-19T20:54:10.641Z,15.10
2018-05-19T20:56:38.217Z,15.10
2018-05-19T20:59:05.739Z,15.10
2018-05-19T21:01:34.038Z,15.10
2018-05-19T21:04:03.111Z,15.10
2018-05-19T21:06:32.798Z,15.00
2018-05-19T21:09:00.290Z,15.00
2018-05-19T21:11:28.561Z,15.00
2018-05-19T21:13:57.006Z,15.00
2018-05-19T21:16:25.285Z,14.90
2018-05-19T21:18:52.881Z,14.90
2018-05-19T21:21:21.096Z,14.90
2018-05-19T21:23:49.526Z,14.90
2018-05-19T21:26:17.786Z,14.80
2018-05-19T21:28:45.290Z,14.80
2018-05-19T21:31:13.581Z,14.80
2018-05-19T21:33:41.110Z,14.80
2018-05-19T21:36:09.375Z,14.80
2018-05-19T21:38:36.953Z,14.80
2018-05-19T21:41:05.228Z,14.70
2018-05-19T21:43:33.545Z,14.70
2018-05-19T21:46:01.810Z,14.50
2018-05-19T21:48:30.112Z,14.50
2018-05-19T21:50:58.414Z,14.50
2018-05-19T21:53:25.940Z,14.40
2018-05-19T21:55:54.198Z,14.40
2018-05-19T21:58:21.733Z,14.40
2018-05-19T22:00:51.121Z,14.40
2018-05-19T22:03:20.227Z,14.40
2018-05-19T22:05:47.861Z,14.30
2018-05-19T22:08:15.363Z,14.40
2018-05-19T22:10:43.640Z,14.30
2018-05-19T22:13:11.933Z,14.30
2018-05-19T22:15:39.485Z,14.30
2018-05-19T22:18:07.754Z,14.10
2018-05-19T22:20:36.024Z,14.10
2018-05-19T22:23:04.316Z,14.10
2018-05-19T22:25:33.684Z,14.10
2018-05-19T22:28:02.222Z,14.10
2018-05-19T22:30:30.501Z,14.00
2018-05-19T22:32:57.997Z,14.00
2018-05-19T22:35:26.299Z,13.90
2018-05-19T22:37:53.842Z,13.90
2018-05-19T22:40:22.105Z,13.90
2018-05-19T22:42:49.646Z,13.90
2018-05-19T22:45:17.152Z,13.90
2018-05-19T22:47:45.561Z,14.00
2018-05-19T22:50:13.888Z,13.90
2018-05-19T22:52:41.435Z,13.90
2018-05-19T22:55:09.798Z,13.90
2018-05-19T22:57:37.307Z,13.90
2018-05-19T23:00:05.603Z,13.80
2018-05-19T23:02:33.093Z,13.80
2018-05-19T23:05:02.841Z,13.80
2018-05-19T23:07:30.345Z,13.80
2018-05-19T23:09:58.653Z,13.80
2018-05-19T23:12:26.920Z,13.60
2018-05-19T23:14:54.458Z,13.60
2018-05-19T23:17:22.761Z,13.50
2018-05-19T23:19:51.025Z,13.60
2018-05-19T23:22:33.458Z,13.50
2018-05-19T23:25:01.222Z,13.60
2018-05-19T23:27:29.493Z,13.60
2018-05-19T23:29:57.795Z,13.60
2018-05-19T23:32:26.067Z,13.60
2018-05-19T23:34:53.562Z,13.50
2018-05-19T23:37:21.112Z,13.50
2018-05-19T23:39:50.281Z,13.40
2018-05-19T23:42:19.173Z,13.40
2018-05-19T23:44:46.730Z,13.40
2018-05-19T23:47:15.389Z,13.40
2018-05-19T23:49:43.653Z,13.50
2018-05-19T23:52:11.183Z,13.50
2018-05-19T23:54:38.724Z,13.40
2018-05-19T23:57:07.003Z,13.30
2018-05-19T23:59:35.376Z,13.20
